sensor_id;sensor_type;location;lat;lon;timestamp;P1;durP1;ratioP1;P2;durP2;ratioP2
66633;SDS011;53546;52.184;5.596;2023-02-27T00:00:33;2.88;;;1.85;;
66633;SDS011;53546;52.184;5.596;2023-02-27T00:02:59;2.75;;;1.98;;
66633;SDS011;53546;52.184;5.596;2023-02-27T00:05:25;2.78;;;1.98;;
66633;SDS011;53546;52.184;5.596;2023-02-27T00:07:50;3.13;;;1.77;;
66633;SDS011;53546;52.184;5.596;2023-02-27T00:10:16;2.08;;;1.73;;
66633;SDS011;53546;52.184;5.596;2023-02-27T00:12:42;8.20;;;2.30;;
66633;SDS011;53546;52.184;5.596;2023-02-27T00:15:18;2.17;;;1.80;;
66633;SDS011;53546;52.184;5.596;2023-02-27T00:17:44;2.45;;;1.80;;
66633;SDS011;53546;52.184;5.596;2023-02-27T00:20:10;2.85;;;1.73;;
66633;SDS011;53546;52.184;5.596;2023-02-27T00:22:40;1.83;;;1.48;;
66633;SDS011;53546;52.184;5.596;2023-02-27T00:25:07;2.38;;;1.65;;
66633;SDS011;53546;52.184;5.596;2023-02-27T00:27:33;2.10;;;1.58;;
66633;SDS011;53546;52.184;5.596;2023-02-27T00:29:59;2.13;;;1.50;;
66633;SDS011;53546;52.184;5.596;2023-02-27T00:32:24;2.47;;;1.70;;
66633;SDS011;53546;52.184;5.596;2023-02-27T00:34:50;3.08;;;1.92;;
66633;SDS011;53546;52.184;5.596;2023-02-27T00:37:15;1.90;;;1.50;;
66633;SDS011;53546;52.184;5.596;2023-02-27T00:39:41;1.98;;;1.42;;
66633;SDS011;53546;52.184;5.596;2023-02-27T00:42:06;2.58;;;1.50;;
66633;SDS011;53546;52.184;5.596;2023-02-27T00:44:32;2.47;;;1.70;;
66633;SDS011;53546;52.184;5.596;2023-02-27T00:46:57;2.28;;;1.50;;
66633;SDS011;53546;52.184;5.596;2023-02-27T00:49:23;2.28;;;1.58;;
66633;SDS011;53546;52.184;5.596;2023-02-27T00:51:49;2.30;;;1.30;;
66633;SDS011;53546;52.184;5.596;2023-02-27T00:54:15;2.38;;;1.70;;
66633;SDS011;53546;52.184;5.596;2023-02-27T00:56:40;4.78;;;1.80;;
66633;SDS011;53546;52.184;5.596;2023-02-27T00:59:06;1.40;;;1.30;;
66633;SDS011;53546;52.184;5.596;2023-02-27T01:01:32;2.25;;;1.70;;
66633;SDS011;53546;52.184;5.596;2023-02-27T01:03:57;1.75;;;1.45;;
66633;SDS011;53546;52.184;5.596;2023-02-27T01:06:22;2.20;;;1.50;;
66633;SDS011;53546;52.184;5.596;2023-02-27T01:08:48;1.83;;;1.50;;
66633;SDS011;53546;52.184;5.596;2023-02-27T01:11:13;2.00;;;1.55;;
66633;SDS011;53546;52.184;5.596;2023-02-27T01:13:38;2.67;;;1.55;;
66633;SDS011;53546;52.184;5.596;2023-02-27T01:16:04;2.35;;;1.73;;
66633;SDS011;53546;52.184;5.596;2023-02-27T01:18:30;2.20;;;1.70;;
66633;SDS011;53546;52.184;5.596;2023-02-27T01:20:55;3.13;;;1.70;;
66633;SDS011;53546;52.184;5.596;2023-02-27T01:23:21;2.22;;;1.35;;
66633;SDS011;53546;52.184;5.596;2023-02-27T01:25:47;4.30;;;1.67;;
66633;SDS011;53546;52.184;5.596;2023-02-27T01:28:12;5.13;;;1.50;;
66633;SDS011;53546;52.184;5.596;2023-02-27T01:30:38;2.10;;;1.60;;
66633;SDS011;53546;52.184;5.596;2023-02-27T01:33:05;4.03;;;1.60;;
66633;SDS011;53546;52.184;5.596;2023-02-27T01:35:30;4.60;;;2.08;;
66633;SDS011;53546;52.184;5.596;2023-02-27T01:37:56;2.00;;;1.50;;
66633;SDS011;53546;52.184;5.596;2023-02-27T01:40:21;2.22;;;1.40;;
66633;SDS011;53546;52.184;5.596;2023-02-27T01:42:46;3.75;;;1.63;;
66633;SDS011;53546;52.184;5.596;2023-02-27T01:45:23;3.47;;;1.33;;
66633;SDS011;53546;52.184;5.596;2023-02-27T01:47:51;3.00;;;1.60;;
66633;SDS011;53546;52.184;5.596;2023-02-27T01:50:23;1.85;;;1.42;;
66633;SDS011;53546;52.184;5.596;2023-02-27T01:52:51;2.42;;;1.48;;
66633;SDS011;53546;52.184;5.596;2023-02-27T01:55:18;1.58;;;1.30;;
66633;SDS011;53546;52.184;5.596;2023-02-27T01:57:44;2.90;;;1.60;;
66633;SDS011;53546;52.184;5.596;2023-02-27T02:00:11;3.42;;;1.60;;
66633;SDS011;53546;52.184;5.596;2023-02-27T02:02:37;2.33;;;1.25;;
66633;SDS011;53546;52.184;5.596;2023-02-27T02:05:06;2.92;;;1.90;;
66633;SDS011;53546;52.184;5.596;2023-02-27T02:07:32;3.33;;;1.40;;
66633;SDS011;53546;52.184;5.596;2023-02-27T02:09:59;2.40;;;1.40;;
66633;SDS011;53546;52.184;5.596;2023-02-27T02:12:26;3.88;;;1.30;;
66633;SDS011;53546;52.184;5.596;2023-02-27T02:14:53;3.03;;;1.77;;
66633;SDS011;53546;52.184;5.596;2023-02-27T02:23:28;4.80;;;1.73;;
66633;SDS011;53546;52.184;5.596;2023-02-27T02:31:50;1.90;;;1.50;;
66633;SDS011;53546;52.184;5.596;2023-02-27T02:42:17;1.75;;;1.42;;
66633;SDS011;53546;52.184;5.596;2023-02-27T02:55:09;2.28;;;1.60;;
66633;SDS011;53546;52.184;5.596;2023-02-27T02:57:51;1.88;;;1.40;;
66633;SDS011;53546;52.184;5.596;2023-02-27T03:00:33;1.92;;;1.30;;
66633;SDS011;53546;52.184;5.596;2023-02-27T03:05:54;3.10;;;1.50;;
66633;SDS011;53546;52.184;5.596;2023-02-27T03:08:27;2.30;;;1.67;;
66633;SDS011;53546;52.184;5.596;2023-02-27T03:11:01;2.22;;;1.58;;
66633;SDS011;53546;52.184;5.596;2023-02-27T03:15:58;2.58;;;1.50;;
66633;SDS011;53546;52.184;5.596;2023-02-27T03:18:30;1.88;;;1.40;;
66633;SDS011;53546;52.184;5.596;2023-02-27T03:21:00;1.63;;;1.35;;
66633;SDS011;53546;52.184;5.596;2023-02-27T03:23:42;2.78;;;1.45;;
66633;SDS011;53546;52.184;5.596;2023-02-27T03:26:08;3.25;;;1.70;;
66633;SDS011;53546;52.184;5.596;2023-02-27T03:28:36;2.22;;;1.25;;
66633;SDS011;53546;52.184;5.596;2023-02-27T03:33:43;5.45;;;1.88;;
66633;SDS011;53546;52.184;5.596;2023-02-27T03:36:18;2.67;;;1.40;;
66633;SDS011;53546;52.184;5.596;2023-02-27T03:39:15;3.25;;;1.20;;
66633;SDS011;53546;52.184;5.596;2023-02-27T03:46:44;2.28;;;1.45;;
66633;SDS011;53546;52.184;5.596;2023-02-27T03:49:10;4.97;;;1.20;;
66633;SDS011;53546;52.184;5.596;2023-02-27T03:51:35;1.15;;;1.05;;
66633;SDS011;53546;52.184;5.596;2023-02-27T03:56:46;2.47;;;1.38;;
66633;SDS011;53546;52.184;5.596;2023-02-27T03:59:22;1.95;;;1.45;;
66633;SDS011;53546;52.184;5.596;2023-02-27T04:01:48;1.48;;;1.38;;
66633;SDS011;53546;52.184;5.596;2023-02-27T04:04:15;4.65;;;1.33;;
66633;SDS011;53546;52.184;5.596;2023-02-27T04:06:52;1.85;;;1.00;;
66633;SDS011;53546;52.184;5.596;2023-02-27T04:13:38;3.42;;;1.33;;
66633;SDS011;53546;52.184;5.596;2023-02-27T04:28:48;2.15;;;1.20;;
66633;SDS011;53546;52.184;5.596;2023-02-27T04:34:07;1.42;;;1.33;;
66633;SDS011;53546;52.184;5.596;2023-02-27T04:36:48;1.17;;;1.08;;
66633;SDS011;53546;52.184;5.596;2023-02-27T04:39:21;2.13;;;1.20;;
66633;SDS011;53546;52.184;5.596;2023-02-27T04:42:02;1.42;;;1.13;;
66633;SDS011;53546;52.184;5.596;2023-02-27T04:44:29;1.70;;;1.10;;
66633;SDS011;53546;52.184;5.596;2023-02-27T04:46:56;1.50;;;1.10;;
66633;SDS011;53546;52.184;5.596;2023-02-27T04:49:57;1.33;;;1.23;;
66633;SDS011;53546;52.184;5.596;2023-02-27T04:52:22;4.10;;;1.15;;
66633;SDS011;53546;52.184;5.596;2023-02-27T04:54:55;2.70;;;1.38;;
66633;SDS011;53546;52.184;5.596;2023-02-27T04:57:41;1.85;;;1.30;;
66633;SDS011;53546;52.184;5.596;2023-02-27T05:00:12;2.17;;;1.37;;
66633;SDS011;53546;52.184;5.596;2023-02-27T05:02:41;1.10;;;1.00;;
66633;SDS011;53546;52.184;5.596;2023-02-27T05:05:13;1.83;;;1.10;;
66633;SDS011;53546;52.184;5.596;2023-02-27T05:07:46;1.58;;;1.15;;
66633;SDS011;53546;52.184;5.596;2023-02-27T05:13:12;1.15;;;1.00;;
66633;SDS011;53546;52.184;5.596;2023-02-27T05:15:44;1.80;;;1.25;;
66633;SDS011;53546;52.184;5.596;2023-02-27T05:18:13;5.55;;;1.08;;
66633;SDS011;53546;52.184;5.596;2023-02-27T05:31:26;4.53;;;1.10;;
66633;SDS011;53546;52.184;5.596;2023-02-27T05:36:42;37.38;;;6.47;;
66633;SDS011;53546;52.184;5.596;2023-02-27T05:39:10;30.98;;;6.30;;
66633;SDS011;53546;52.184;5.596;2023-02-27T05:41:44;26.30;;;6.05;;
66633;SDS011;53546;52.184;5.596;2023-02-27T05:44:35;24.95;;;5.20;;
66633;SDS011;53546;52.184;5.596;2023-02-27T05:47:04;21.10;;;5.40;;
66633;SDS011;53546;52.184;5.596;2023-02-27T05:49:46;25.45;;;4.88;;
66633;SDS011;53546;52.184;5.596;2023-02-27T05:54:47;15.20;;;4.60;;
66633;SDS011;53546;52.184;5.596;2023-02-27T05:57:18;14.40;;;4.20;;
66633;SDS011;53546;52.184;5.596;2023-02-27T06:02:40;11.23;;;3.40;;
66633;SDS011;53546;52.184;5.596;2023-02-27T06:05:07;11.13;;;3.42;;
66633;SDS011;53546;52.184;5.596;2023-02-27T06:07:33;14.98;;;4.18;;
66633;SDS011;53546;52.184;5.596;2023-02-27T06:09:58;8.70;;;3.28;;
66633;SDS011;53546;52.184;5.596;2023-02-27T06:12:24;9.15;;;3.50;;
66633;SDS011;53546;52.184;5.596;2023-02-27T06:14:50;9.35;;;3.38;;
66633;SDS011;53546;52.184;5.596;2023-02-27T06:17:16;11.10;;;3.80;;
66633;SDS011;53546;52.184;5.596;2023-02-27T06:19:41;8.55;;;3.60;;
66633;SDS011;53546;52.184;5.596;2023-02-27T06:22:08;10.00;;;2.92;;
66633;SDS011;53546;52.184;5.596;2023-02-27T06:24:34;9.38;;;3.25;;
66633;SDS011;53546;52.184;5.596;2023-02-27T06:26:59;8.68;;;3.10;;
66633;SDS011;53546;52.184;5.596;2023-02-27T06:29:27;7.55;;;3.08;;
66633;SDS011;53546;52.184;5.596;2023-02-27T06:31:53;13.30;;;3.00;;
66633;SDS011;53546;52.184;5.596;2023-02-27T06:34:18;6.97;;;2.47;;
66633;SDS011;53546;52.184;5.596;2023-02-27T06:36:44;6.32;;;3.00;;
66633;SDS011;53546;52.184;5.596;2023-02-27T06:39:09;5.60;;;2.50;;
66633;SDS011;53546;52.184;5.596;2023-02-27T06:41:35;6.13;;;2.75;;
66633;SDS011;53546;52.184;5.596;2023-02-27T06:44:01;5.88;;;2.85;;
66633;SDS011;53546;52.184;5.596;2023-02-27T06:46:27;4.93;;;2.70;;
66633;SDS011;53546;52.184;5.596;2023-02-27T06:48:52;4.45;;;2.55;;
66633;SDS011;53546;52.184;5.596;2023-02-27T06:51:17;5.55;;;2.78;;
66633;SDS011;53546;52.184;5.596;2023-02-27T06:53:43;6.65;;;2.58;;
66633;SDS011;53546;52.184;5.596;2023-02-27T06:56:08;5.15;;;2.40;;
66633;SDS011;53546;52.184;5.596;2023-02-27T06:58:34;3.58;;;2.20;;
66633;SDS011;53546;52.184;5.596;2023-02-27T07:00:59;4.88;;;2.25;;
66633;SDS011;53546;52.184;5.596;2023-02-27T07:03:25;6.45;;;2.47;;
66633;SDS011;53546;52.184;5.596;2023-02-27T07:05:50;8.68;;;2.45;;
66633;SDS011;53546;52.184;5.596;2023-02-27T07:08:16;5.63;;;2.42;;
66633;SDS011;53546;52.184;5.596;2023-02-27T07:10:42;5.07;;;2.38;;
66633;SDS011;53546;52.184;5.596;2023-02-27T07:13:10;5.80;;;2.28;;
66633;SDS011;53546;52.184;5.596;2023-02-27T07:15:36;3.90;;;2.40;;
66633;SDS011;53546;52.184;5.596;2023-02-27T07:18:02;4.72;;;2.47;;
66633;SDS011;53546;52.184;5.596;2023-02-27T07:20:27;7.90;;;2.38;;
66633;SDS011;53546;52.184;5.596;2023-02-27T07:22:53;8.70;;;2.58;;
66633;SDS011;53546;52.184;5.596;2023-02-27T07:25:18;9.23;;;3.03;;
66633;SDS011;53546;52.184;5.596;2023-02-27T07:27:43;7.82;;;2.55;;
66633;SDS011;53546;52.184;5.596;2023-02-27T07:30:10;8.18;;;2.40;;
66633;SDS011;53546;52.184;5.596;2023-02-27T07:32:36;7.35;;;2.83;;
66633;SDS011;53546;52.184;5.596;2023-02-27T07:35:01;16.15;;;3.25;;
66633;SDS011;53546;52.184;5.596;2023-02-27T07:37:28;24.45;;;3.80;;
66633;SDS011;53546;52.184;5.596;2023-02-27T07:39:53;17.75;;;3.55;;
66633;SDS011;53546;52.184;5.596;2023-02-27T07:42:20;15.32;;;3.65;;
66633;SDS011;53546;52.184;5.596;2023-02-27T07:44:45;29.63;;;4.53;;
66633;SDS011;53546;52.184;5.596;2023-02-27T07:47:10;27.33;;;3.97;;
66633;SDS011;53546;52.184;5.596;2023-02-27T07:49:36;22.02;;;3.67;;
66633;SDS011;53546;52.184;5.596;2023-02-27T07:52:01;22.55;;;3.42;;
66633;SDS011;53546;52.184;5.596;2023-02-27T07:54:27;33.58;;;4.82;;
66633;SDS011;53546;52.184;5.596;2023-02-27T07:56:52;22.83;;;3.70;;
66633;SDS011;53546;52.184;5.596;2023-02-27T07:59:18;27.55;;;3.95;;
66633;SDS011;53546;52.184;5.596;2023-02-27T08:01:43;40.92;;;4.38;;
66633;SDS011;53546;52.184;5.596;2023-02-27T08:04:08;24.85;;;4.45;;
66633;SDS011;53546;52.184;5.596;2023-02-27T08:06:34;34.50;;;4.15;;
66633;SDS011;53546;52.184;5.596;2023-02-27T08:08:59;32.15;;;4.72;;
66633;SDS011;53546;52.184;5.596;2023-02-27T08:11:25;35.70;;;4.35;;
66633;SDS011;53546;52.184;5.596;2023-02-27T08:13:50;34.90;;;4.18;;
66633;SDS011;53546;52.184;5.596;2023-02-27T08:16:15;26.10;;;4.57;;
66633;SDS011;53546;52.184;5.596;2023-02-27T08:18:42;32.17;;;4.53;;
66633;SDS011;53546;52.184;5.596;2023-02-27T08:21:07;34.67;;;4.38;;
66633;SDS011;53546;52.184;5.596;2023-02-27T08:23:33;22.27;;;4.47;;
66633;SDS011;53546;52.184;5.596;2023-02-27T08:26:01;37.38;;;5.40;;
66633;SDS011;53546;52.184;5.596;2023-02-27T08:28:26;38.88;;;5.82;;
66633;SDS011;53546;52.184;5.596;2023-02-27T08:30:53;42.22;;;4.65;;
66633;SDS011;53546;52.184;5.596;2023-02-27T08:33:19;27.40;;;3.92;;
66633;SDS011;53546;52.184;5.596;2023-02-27T08:35:45;33.38;;;4.68;;
66633;SDS011;53546;52.184;5.596;2023-02-27T08:38:10;29.10;;;4.38;;
66633;SDS011;53546;52.184;5.596;2023-02-27T08:40:35;26.80;;;4.63;;
66633;SDS011;53546;52.184;5.596;2023-02-27T08:43:01;34.80;;;5.03;;
66633;SDS011;53546;52.184;5.596;2023-02-27T08:45:26;38.58;;;5.35;;
66633;SDS011;53546;52.184;5.596;2023-02-27T08:47:52;33.95;;;4.70;;
66633;SDS011;53546;52.184;5.596;2023-02-27T08:50:17;40.25;;;4.78;;
66633;SDS011;53546;52.184;5.596;2023-02-27T08:52:43;47.47;;;4.32;;
66633;SDS011;53546;52.184;5.596;2023-02-27T08:55:08;36.85;;;4.38;;
66633;SDS011;53546;52.184;5.596;2023-02-27T08:57:34;35.58;;;4.63;;
66633;SDS011;53546;52.184;5.596;2023-02-27T08:59:59;55.65;;;5.05;;
66633;SDS011;53546;52.184;5.596;2023-02-27T09:02:24;35.30;;;4.50;;
66633;SDS011;53546;52.184;5.596;2023-02-27T09:04:53;40.35;;;4.65;;
66633;SDS011;53546;52.184;5.596;2023-02-27T09:07:19;22.58;;;3.92;;
66633;SDS011;53546;52.184;5.596;2023-02-27T09:09:44;27.83;;;4.43;;
66633;SDS011;53546;52.184;5.596;2023-02-27T09:12:10;29.45;;;4.97;;
66633;SDS011;53546;52.184;5.596;2023-02-27T09:14:38;29.02;;;5.40;;
66633;SDS011;53546;52.184;5.596;2023-02-27T09:17:04;27.70;;;5.30;;
66633;SDS011;53546;52.184;5.596;2023-02-27T09:19:30;34.70;;;5.93;;
66633;SDS011;53546;52.184;5.596;2023-02-27T09:21:55;24.17;;;4.70;;
66633;SDS011;53546;52.184;5.596;2023-02-27T09:24:20;18.40;;;4.15;;
66633;SDS011;53546;52.184;5.596;2023-02-27T09:26:46;27.67;;;4.95;;
66633;SDS011;53546;52.184;5.596;2023-02-27T09:29:12;27.95;;;3.95;;
66633;SDS011;53546;52.184;5.596;2023-02-27T09:31:37;23.52;;;4.20;;
66633;SDS011;53546;52.184;5.596;2023-02-27T09:34:03;26.83;;;4.40;;
66633;SDS011;53546;52.184;5.596;2023-02-27T09:36:28;26.33;;;4.35;;
66633;SDS011;53546;52.184;5.596;2023-02-27T09:38:54;31.65;;;3.70;;
66633;SDS011;53546;52.184;5.596;2023-02-27T09:41:34;36.05;;;4.32;;
66633;SDS011;53546;52.184;5.596;2023-02-27T09:44:06;31.75;;;4.35;;
66633;SDS011;53546;52.184;5.596;2023-02-27T09:46:40;33.67;;;3.83;;
66633;SDS011;53546;52.184;5.596;2023-02-27T09:49:05;16.33;;;3.22;;
66633;SDS011;53546;52.184;5.596;2023-02-27T09:51:36;47.25;;;5.05;;
66633;SDS011;53546;52.184;5.596;2023-02-27T09:54:02;17.73;;;3.80;;
66633;SDS011;53546;52.184;5.596;2023-02-27T10:04:25;30.08;;;3.75;;
66633;SDS011;53546;52.184;5.596;2023-02-27T10:09:34;31.85;;;4.93;;
66633;SDS011;53546;52.184;5.596;2023-02-27T10:14:57;31.90;;;4.22;;
66633;SDS011;53546;52.184;5.596;2023-02-27T10:17:43;25.02;;;4.10;;
66633;SDS011;53546;52.184;5.596;2023-02-27T10:20:27;29.67;;;4.25;;
66633;SDS011;53546;52.184;5.596;2023-02-27T10:22:56;27.90;;;4.65;;
66633;SDS011;53546;52.184;5.596;2023-02-27T10:25:24;40.55;;;4.30;;
66633;SDS011;53546;52.184;5.596;2023-02-27T10:27:52;31.42;;;5.03;;
66633;SDS011;53546;52.184;5.596;2023-02-27T10:30:21;25.55;;;4.47;;
66633;SDS011;53546;52.184;5.596;2023-02-27T10:32:58;26.95;;;4.68;;
66633;SDS011;53546;52.184;5.596;2023-02-27T10:35:33;32.63;;;4.80;;
66633;SDS011;53546;52.184;5.596;2023-02-27T10:38:05;27.33;;;4.13;;
66633;SDS011;53546;52.184;5.596;2023-02-27T10:43:02;17.70;;;3.20;;
66633;SDS011;53546;52.184;5.596;2023-02-27T10:45:29;15.90;;;3.53;;
66633;SDS011;53546;52.184;5.596;2023-02-27T10:47:55;19.02;;;2.92;;
66633;SDS011;53546;52.184;5.596;2023-02-27T10:53:05;11.70;;;3.05;;
66633;SDS011;53546;52.184;5.596;2023-02-27T10:55:40;8.70;;;2.22;;
66633;SDS011;53546;52.184;5.596;2023-02-27T10:58:07;7.07;;;1.92;;
66633;SDS011;53546;52.184;5.596;2023-02-27T11:03:18;10.07;;;2.15;;
66633;SDS011;53546;52.184;5.596;2023-02-27T11:05:52;11.02;;;1.92;;
66633;SDS011;53546;52.184;5.596;2023-02-27T11:08:36;10.98;;;1.73;;
66633;SDS011;53546;52.184;5.596;2023-02-27T11:11:06;10.18;;;1.83;;
66633;SDS011;53546;52.184;5.596;2023-02-27T11:16:18;6.28;;;1.55;;
66633;SDS011;53546;52.184;5.596;2023-02-27T11:18:54;10.43;;;1.77;;
66633;SDS011;53546;52.184;5.596;2023-02-27T11:21:28;4.97;;;1.50;;
66633;SDS011;53546;52.184;5.596;2023-02-27T11:27:00;7.25;;;1.50;;
66633;SDS011;53546;52.184;5.596;2023-02-27T11:29:21;5.07;;;1.40;;
66633;SDS011;53546;52.184;5.596;2023-02-27T11:32:04;5.40;;;1.40;;
66633;SDS011;53546;52.184;5.596;2023-02-27T11:34:39;8.45;;;1.50;;
66633;SDS011;53546;52.184;5.596;2023-02-27T11:37:23;4.03;;;1.17;;
66633;SDS011;53546;52.184;5.596;2023-02-27T11:39:50;5.57;;;1.70;;
66633;SDS011;53546;52.184;5.596;2023-02-27T11:42:19;3.88;;;1.30;;
66633;SDS011;53546;52.184;5.596;2023-02-27T11:44:52;1.70;;;1.00;;
66633;SDS011;53546;52.184;5.596;2023-02-27T11:47:22;2.67;;;1.17;;
66633;SDS011;53546;52.184;5.596;2023-02-27T11:53:00;2.28;;;1.05;;
66633;SDS011;53546;52.184;5.596;2023-02-27T11:55:30;2.05;;;1.10;;
66633;SDS011;53546;52.184;5.596;2023-02-27T11:58:12;5.35;;;1.30;;
66633;SDS011;53546;52.184;5.596;2023-02-27T12:00:44;2.13;;;1.20;;
66633;SDS011;53546;52.184;5.596;2023-02-27T12:05:53;4.72;;;1.20;;
66633;SDS011;53546;52.184;5.596;2023-02-27T12:11:20;2.95;;;1.02;;
66633;SDS011;53546;52.184;5.596;2023-02-27T12:13:53;1.73;;;1.08;;
66633;SDS011;53546;52.184;5.596;2023-02-27T12:16:44;4.88;;;1.30;;
66633;SDS011;53546;52.184;5.596;2023-02-27T12:19:19;8.80;;;1.08;;
66633;SDS011;53546;52.184;5.596;2023-02-27T12:22:31;6.03;;;1.27;;
66633;SDS011;53546;52.184;5.596;2023-02-27T12:24:48;6.15;;;1.10;;
66633;SDS011;53546;52.184;5.596;2023-02-27T12:27:24;3.25;;;0.88;;
66633;SDS011;53546;52.184;5.596;2023-02-27T12:34:58;2.78;;;1.00;;
66633;SDS011;53546;52.184;5.596;2023-02-27T12:37:29;2.35;;;0.82;;
66633;SDS011;53546;52.184;5.596;2023-02-27T12:39:58;2.13;;;0.90;;
66633;SDS011;53546;52.184;5.596;2023-02-27T12:56:08;1.30;;;0.90;;
66633;SDS011;53546;52.184;5.596;2023-02-27T13:04:01;1.08;;;0.60;;
66633;SDS011;53546;52.184;5.596;2023-02-27T13:06:37;1.45;;;1.00;;
66633;SDS011;53546;52.184;5.596;2023-02-27T13:15:02;1.67;;;0.90;;
66633;SDS011;53546;52.184;5.596;2023-02-27T13:25:34;1.55;;;1.00;;
66633;SDS011;53546;52.184;5.596;2023-02-27T13:28:01;2.08;;;0.93;;
66633;SDS011;53546;52.184;5.596;2023-02-27T13:30:32;0.73;;;0.70;;
66633;SDS011;53546;52.184;5.596;2023-02-27T13:33:04;1.75;;;0.82;;
66633;SDS011;53546;52.184;5.596;2023-02-27T13:36:06;2.42;;;0.95;;
66633;SDS011;53546;52.184;5.596;2023-02-27T13:38:41;1.83;;;0.98;;
66633;SDS011;53546;52.184;5.596;2023-02-27T13:43:52;1.63;;;0.73;;
66633;SDS011;53546;52.184;5.596;2023-02-27T13:48:48;3.63;;;0.68;;
66633;SDS011;53546;52.184;5.596;2023-02-27T13:56:46;2.15;;;0.80;;
66633;SDS011;53546;52.184;5.596;2023-02-27T14:01:57;1.70;;;1.00;;
66633;SDS011;53546;52.184;5.596;2023-02-27T14:04:24;3.10;;;0.98;;
66633;SDS011;53546;52.184;5.596;2023-02-27T14:07:11;1.20;;;1.05;;
66633;SDS011;53546;52.184;5.596;2023-02-27T14:09:43;0.88;;;0.70;;
66633;SDS011;53546;52.184;5.596;2023-02-27T14:12:29;3.03;;;0.90;;
66633;SDS011;53546;52.184;5.596;2023-02-27T14:15:05;2.30;;;1.00;;
66633;SDS011;53546;52.184;5.596;2023-02-27T14:17:46;3.88;;;1.10;;
66633;SDS011;53546;52.184;5.596;2023-02-27T14:20:46;1.75;;;0.90;;
66633;SDS011;53546;52.184;5.596;2023-02-27T14:28:11;0.70;;;0.70;;
66633;SDS011;53546;52.184;5.596;2023-02-27T14:31:03;1.17;;;0.75;;
66633;SDS011;53546;52.184;5.596;2023-02-27T14:36:25;4.50;;;0.90;;
66633;SDS011;53546;52.184;5.596;2023-02-27T14:38:55;1.13;;;0.90;;
66633;SDS011;53546;52.184;5.596;2023-02-27T14:43:51;0.93;;;0.90;;
66633;SDS011;53546;52.184;5.596;2023-02-27T14:46:23;2.47;;;0.98;;
66633;SDS011;53546;52.184;5.596;2023-02-27T14:49:33;4.68;;;1.20;;
66633;SDS011;53546;52.184;5.596;2023-02-27T14:51:46;1.00;;;0.80;;
66633;SDS011;53546;52.184;5.596;2023-02-27T14:54:13;2.00;;;0.80;;
66633;SDS011;53546;52.184;5.596;2023-02-27T14:57:01;0.63;;;0.63;;
66633;SDS011;53546;52.184;5.596;2023-02-27T14:59:29;0.80;;;0.75;;
66633;SDS011;53546;52.184;5.596;2023-02-27T15:02:00;1.17;;;0.90;;
66633;SDS011;53546;52.184;5.596;2023-02-27T15:04:28;1.55;;;0.88;;
66633;SDS011;53546;52.184;5.596;2023-02-27T15:06:55;1.10;;;0.82;;
66633;SDS011;53546;52.184;5.596;2023-02-27T15:09:33;0.95;;;0.80;;
66633;SDS011;53546;52.184;5.596;2023-02-27T15:12:01;0.90;;;0.70;;
66633;SDS011;53546;52.184;5.596;2023-02-27T15:14:29;2.00;;;0.82;;
66633;SDS011;53546;52.184;5.596;2023-02-27T15:16:56;0.65;;;0.65;;
66633;SDS011;53546;52.184;5.596;2023-02-27T15:19:23;1.13;;;0.88;;
66633;SDS011;53546;52.184;5.596;2023-02-27T15:21:50;1.38;;;0.82;;
66633;SDS011;53546;52.184;5.596;2023-02-27T15:26:52;1.13;;;0.95;;
66633;SDS011;53546;52.184;5.596;2023-02-27T15:29:20;0.90;;;0.75;;
66633;SDS011;53546;52.184;5.596;2023-02-27T15:31:47;2.20;;;1.10;;
66633;SDS011;53546;52.184;5.596;2023-02-27T15:34:13;3.67;;;1.55;;
66633;SDS011;53546;52.184;5.596;2023-02-27T15:36:41;1.65;;;1.40;;
66633;SDS011;53546;52.184;5.596;2023-02-27T15:41:35;2.08;;;0.88;;
66633;SDS011;53546;52.184;5.596;2023-02-27T15:44:01;1.35;;;1.00;;
66633;SDS011;53546;52.184;5.596;2023-02-27T15:46:27;3.22;;;1.00;;
66633;SDS011;53546;52.184;5.596;2023-02-27T15:48:52;1.83;;;1.05;;
66633;SDS011;53546;52.184;5.596;2023-02-27T15:51:18;1.30;;;0.90;;
66633;SDS011;53546;52.184;5.596;2023-02-27T15:53:48;2.80;;;1.88;;
66633;SDS011;53546;52.184;5.596;2023-02-27T15:56:14;2.15;;;1.17;;
66633;SDS011;53546;52.184;5.596;2023-02-27T15:58:43;1.30;;;1.00;;
66633;SDS011;53546;52.184;5.596;2023-02-27T16:03:53;3.13;;;1.10;;
66633;SDS011;53546;52.184;5.596;2023-02-27T16:06:23;4.57;;;0.90;;
66633;SDS011;53546;52.184;5.596;2023-02-27T16:08:51;3.63;;;1.30;;
66633;SDS011;53546;52.184;5.596;2023-02-27T16:11:19;1.35;;;1.20;;
66633;SDS011;53546;52.184;5.596;2023-02-27T16:13:46;1.42;;;0.85;;
66633;SDS011;53546;52.184;5.596;2023-02-27T16:16:25;1.63;;;1.00;;
66633;SDS011;53546;52.184;5.596;2023-02-27T16:22:04;3.75;;;1.00;;
66633;SDS011;53546;52.184;5.596;2023-02-27T16:24:35;1.00;;;0.90;;
66633;SDS011;53546;52.184;5.596;2023-02-27T16:27:01;2.35;;;0.95;;
66633;SDS011;53546;52.184;5.596;2023-02-27T16:31:58;2.05;;;1.10;;
66633;SDS011;53546;52.184;5.596;2023-02-27T16:34:38;3.38;;;1.10;;
66633;SDS011;53546;52.184;5.596;2023-02-27T16:37:05;1.67;;;1.13;;
66633;SDS011;53546;52.184;5.596;2023-02-27T16:39:31;3.08;;;1.05;;
66633;SDS011;53546;52.184;5.596;2023-02-27T16:41:57;1.55;;;1.20;;
66633;SDS011;53546;52.184;5.596;2023-02-27T16:44:24;2.40;;;1.00;;
66633;SDS011;53546;52.184;5.596;2023-02-27T16:46:50;1.80;;;1.13;;
66633;SDS011;53546;52.184;5.596;2023-02-27T16:49:20;1.85;;;1.27;;
66633;SDS011;53546;52.184;5.596;2023-02-27T16:51:47;1.10;;;0.85;;
66633;SDS011;53546;52.184;5.596;2023-02-27T16:54:13;3.83;;;1.10;;
66633;SDS011;53546;52.184;5.596;2023-02-27T16:56:40;2.72;;;1.10;;
66633;SDS011;53546;52.184;5.596;2023-02-27T16:59:08;3.10;;;1.00;;
66633;SDS011;53546;52.184;5.596;2023-02-27T17:01:47;2.20;;;1.20;;
66633;SDS011;53546;52.184;5.596;2023-02-27T17:04:13;2.70;;;1.05;;
66633;SDS011;53546;52.184;5.596;2023-02-27T17:06:38;2.33;;;1.00;;
66633;SDS011;53546;52.184;5.596;2023-02-27T17:09:04;1.35;;;0.80;;
66633;SDS011;53546;52.184;5.596;2023-02-27T17:11:29;2.88;;;1.20;;
66633;SDS011;53546;52.184;5.596;2023-02-27T17:13:55;1.17;;;1.08;;
66633;SDS011;53546;52.184;5.596;2023-02-27T17:16:20;3.50;;;1.10;;
66633;SDS011;53546;52.184;5.596;2023-02-27T17:18:45;1.17;;;0.90;;
66633;SDS011;53546;52.184;5.596;2023-02-27T17:21:11;2.28;;;1.00;;
66633;SDS011;53546;52.184;5.596;2023-02-27T17:23:36;1.20;;;1.10;;
66633;SDS011;53546;52.184;5.596;2023-02-27T17:26:02;1.67;;;1.15;;
66633;SDS011;53546;52.184;5.596;2023-02-27T17:28:28;1.88;;;1.27;;
66633;SDS011;53546;52.184;5.596;2023-02-27T17:30:53;3.40;;;1.05;;
66633;SDS011;53546;52.184;5.596;2023-02-27T17:33:19;1.08;;;0.98;;
66633;SDS011;53546;52.184;5.596;2023-02-27T17:35:44;1.30;;;1.00;;
66633;SDS011;53546;52.184;5.596;2023-02-27T17:38:09;3.47;;;1.20;;
66633;SDS011;53546;52.184;5.596;2023-02-27T17:40:35;2.00;;;1.17;;
66633;SDS011;53546;52.184;5.596;2023-02-27T17:43:01;2.10;;;1.20;;
66633;SDS011;53546;52.184;5.596;2023-02-27T17:45:27;2.63;;;1.20;;
66633;SDS011;53546;52.184;5.596;2023-02-27T17:47:52;2.38;;;1.10;;
66633;SDS011;53546;52.184;5.596;2023-02-27T17:50:18;2.70;;;1.20;;
66633;SDS011;53546;52.184;5.596;2023-02-27T17:52:44;2.22;;;1.40;;
66633;SDS011;53546;52.184;5.596;2023-02-27T17:55:10;3.45;;;1.50;;
66633;SDS011;53546;52.184;5.596;2023-02-27T17:57:36;1.63;;;1.23;;
66633;SDS011;53546;52.184;5.596;2023-02-27T18:00:06;3.03;;;1.58;;
66633;SDS011;53546;52.184;5.596;2023-02-27T18:02:34;2.28;;;1.73;;
66633;SDS011;53546;52.184;5.596;2023-02-27T18:05:00;2.50;;;1.23;;
66633;SDS011;53546;52.184;5.596;2023-02-27T18:07:28;1.80;;;1.50;;
66633;SDS011;53546;52.184;5.596;2023-02-27T18:09:54;3.42;;;1.73;;
66633;SDS011;53546;52.184;5.596;2023-02-27T18:12:19;3.45;;;1.58;;